Time;durP1;ratioP1;P1;durP2;ratioP2;P2;SDS_P1;SDS_P2;PMS_P1;PMS_P2;Temp;Humidity;BMP_temperature;BMP_pressure;BME280_temperature;BME280_humidity;BME280_pressure;Samples;Min_cycle;Max_cycle;Signal;HPM_P1;HPM_P2
2024/03/22 00:01:43;;;;;;;13.17;6.10;;;;;;;8.87;100.00;96976.50;4976412;28;20203;-72
2024/03/22 00:04:10;;;;;;;15.30;6.43;;;;;;;8.77;100.00;96981.00;4975048;28;20317;-71
2024/03/22 00:06:36;;;;;;;12.33;5.83;;;;;;;8.64;100.00;96988.41;4975870;28;20203;-69
2024/03/22 00:09:02;;;;;;;18.47;8.47;;;;;;;8.69;100.00;96993.22;4977632;28;20227;-71
2024/03/22 00:11:28;;;;;;;23.07;9.30;;;;;;;8.96;100.00;96985.28;4975438;28;20920;-71
2024/03/22 00:13:54;;;;;;;26.63;10.73;;;;;;;9.08;100.00;96988.38;4976062;28;20706;-70
2024/03/22 00:16:20;;;;;;;23.47;9.67;;;;;;;9.27;100.00;96982.16;4976455;28;20208;-70
2024/03/22 00:18:47;;;;;;;23.93;9.43;;;;;;;9.29;100.00;96972.28;4974836;28;20601;-69
2024/03/22 00:21:14;;;;;;;26.57;10.23;;;;;;;9.33;100.00;96949.97;4975850;28;20356;-69
2024/03/22 00:23:39;;;;;;;23.63;9.37;;;;;;;9.49;100.00;96960.63;4975921;28;20207;-70
2024/03/22 00:26:06;;;;;;;24.77;10.23;;;;;;;9.55;100.00;96952.13;4976041;28;20222;-69
2024/03/22 00:28:32;;;;;;;23.50;10.07;;;;;;;9.55;100.00;96950.31;4974774;28;20234;-70
2024/03/22 00:30:58;;;;;;;23.47;10.57;;;;;;;9.70;100.00;96949.59;4975744;28;20227;-69
2024/03/22 00:33:24;;;;;;;24.37;10.10;;;;;;;9.75;100.00;96949.97;4975767;28;20210;-69
2024/03/22 00:35:51;;;;;;;27.30;11.33;;;;;;;9.83;100.00;96951.84;4975421;28;20585;-69
2024/03/22 00:38:17;;;;;;;24.90;10.37;;;;;;;9.75;100.00;96944.69;4974855;28;20605;-70
2024/03/22 00:40:44;;;;;;;25.27;10.80;;;;;;;9.85;100.00;96934.91;4974897;28;20496;-70
2024/03/22 00:43:09;;;;;;;28.57;11.47;;;;;;;9.81;100.00;96938.81;4975867;28;20211;-67
2024/03/22 00:45:36;;;;;;;25.77;10.70;;;;;;;9.94;100.00;96938.38;4975641;28;20207;-69
2024/03/22 00:48:01;;;;;;;30.77;10.47;;;;;;;10.03;100.00;96929.56;4974864;28;20239;-67
2024/03/22 00:50:28;;;;;;;26.67;11.60;;;;;;;10.03;100.00;96933.06;4975168;28;20223;-68
2024/03/22 00:52:56;;;;;;;26.73;10.07;;;;;;;10.18;100.00;96926.19;4975195;28;20570;-70
2024/03/22 00:55:22;;;;;;;22.60;9.17;;;;;;;10.02;100.00;96930.59;4975460;28;20788;-70
2024/03/22 00:57:48;;;;;;;22.17;9.47;;;;;;;9.96;100.00;96936.47;4975923;28;20229;-69
2024/03/22 01:00:16;;;;;;;24.37;10.13;;;;;;;9.37;100.00;96933.75;4975382;28;20207;-69
2024/03/22 01:02:42;;;;;;;25.53;10.53;;;;;;;9.26;100.00;96933.16;4976585;28;20454;-68
2024/03/22 01:05:08;;;;;;;24.90;9.17;;;;;;;9.35;100.00;96937.50;4975776;28;20207;-69
2024/03/22 01:07:35;;;;;;;22.40;9.40;;;;;;;9.48;100.00;96937.94;4974343;28;20383;-68
2024/03/22 01:10:04;;;;;;;21.83;8.80;;;;;;;9.43;100.00;96934.91;4975522;28;20230;-68
2024/03/22 01:12:29;;;;;;;21.60;8.53;;;;;;;9.14;100.00;96943.06;4975068;28;20658;-69
2024/03/22 01:14:56;;;;;;;20.90;8.07;;;;;;;9.02;100.00;96937.38;4974581;28;20207;-70
2024/03/22 01:17:21;;;;;;;24.20;9.50;;;;;;;8.79;100.00;96942.25;4974338;28;20227;-68
2024/03/22 01:19:48;;;;;;;17.37;8.07;;;;;;;8.93;100.00;96939.09;4974880;28;20206;-70
2024/03/22 01:22:14;;;;;;;18.53;8.40;;;;;;;8.44;100.00;96940.53;4974981;28;20312;-70
2024/03/22 01:24:40;;;;;;;20.30;8.57;;;;;;;8.74;100.00;96938.41;4975206;28;20360;-70
2024/03/22 01:27:07;;;;;;;19.93;8.90;;;;;;;8.85;100.00;96944.28;4974764;28;20211;-71
2024/03/22 01:29:34;;;;;;;18.93;8.60;;;;;;;8.69;100.00;96940.66;4974598;28;20700;-69
2024/03/22 01:31:59;;;;;;;22.27;9.53;;;;;;;8.81;100.00;96935.03;4975053;28;20767;-68
2024/03/22 01:34:26;;;;;;;20.30;9.40;;;;;;;8.86;100.00;96932.81;4974846;28;20207;-69
2024/03/22 01:36:51;;;;;;;20.80;8.90;;;;;;;8.86;100.00;96932.81;4973623;28;20203;-70
2024/03/22 01:39:21;;;;;;;20.10;8.33;;;;;;;8.95;100.00;96931.91;4975205;28;20230;-70
2024/03/22 01:41:46;;;;;;;27.53;9.73;;;;;;;8.72;100.00;96933.31;4974751;28;20580;-70
2024/03/22 01:44:14;;;;;;;22.83;8.37;;;;;;;8.93;100.00;96920.69;4975196;28;20203;-70
2024/03/22 01:46:40;;;;;;;22.00;8.43;;;;;;;8.73;100.00;96916.59;4974878;28;20207;-70
2024/03/22 01:49:08;;;;;;;20.37;8.57;;;;;;;8.67;100.00;96906.66;4974779;28;20239;-68
2024/03/22 01:51:34;;;;;;;19.90;8.27;;;;;;;8.55;100.00;96907.88;4973204;28;20234;-70
2024/03/22 01:54:04;;;;;;;24.17;9.50;;;;;;;8.81;100.00;96903.50;4974794;28;20203;-70
2024/03/22 01:56:30;;;;;;;19.27;9.33;;;;;;;8.68;100.00;96903.06;4973863;28;20203;-70
2024/03/22 01:58:57;;;;;;;28.43;11.47;;;;;;;8.89;100.00;96895.69;4974582;28;20223;-69
2024/03/22 02:01:24;;;;;;;29.70;12.27;;;;;;;8.89;100.00;96890.44;4974195;28;20257;-68
2024/03/22 02:03:51;;;;;;;31.33;12.53;;;;;;;8.81;100.00;96879.88;4974757;28;20207;-71
2024/03/22 02:06:16;;;;;;;33.03;12.00;;;;;;;8.99;100.00;96869.34;4973753;28;20684;-69
2024/03/22 02:08:44;;;;;;;28.57;11.10;;;;;;;9.04;100.00;96867.91;4973924;28;20223;-70
2024/03/22 02:11:09;;;;;;;32.70;13.07;;;;;;;9.08;100.00;96868.44;4974061;28;20641;-68
2024/03/22 02:13:36;;;;;;;35.43;13.00;;;;;;;9.19;100.00;96863.75;4974189;28;20299;-70
2024/03/22 02:16:02;;;;;;;30.90;12.20;;;;;;;9.18;100.00;96865.53;4974416;28;20222;-69
2024/03/22 02:18:30;;;;;;;33.03;13.00;;;;;;;9.29;100.00;96857.41;4972720;28;20713;-70
2024/03/22 02:20:56;;;;;;;28.47;11.63;;;;;;;9.21;100.00;96859.16;4974347;28;20199;-70
2024/03/22 02:23:31;;;;;;;31.13;12.97;;;;;;;9.42;100.00;96849.09;4973669;28;20592;-70
2024/03/22 02:25:57;;;;;;;31.67;12.73;;;;;;;9.05;100.00;96859.03;4973686;28;20210;-70
2024/03/22 02:28:24;;;;;;;33.23;11.97;;;;;;;9.04;100.00;96860.03;4973549;28;20227;-69
2024/03/22 02:30:49;;;;;;;31.73;11.90;;;;;;;9.14;100.00;96858.94;4973409;28;20707;-70
2024/03/22 02:33:16;;;;;;;31.17;11.93;;;;;;;9.13;100.00;96859.91;4973387;28;20218;-70
2024/03/22 02:35:42;;;;;;;32.10;12.17;;;;;;;9.16;100.00;96861.41;4975614;28;20208;-70
2024/03/22 02:38:08;;;;;;;33.40;12.37;;;;;;;9.12;100.00;96857.44;4974066;28;20500;-70
2024/03/22 02:40:36;;;;;;;32.97;12.10;;;;;;;9.09;100.00;96857.75;4973454;28;20673;-69
2024/03/22 02:43:01;;;;;;;28.93;12.07;;;;;;;9.08;100.00;96854.28;4974097;28;20454;-68
2024/03/22 02:45:28;;;;;;;28.60;12.20;;;;;;;9.02;100.00;96846.19;4973798;28;20211;-70
2024/03/22 02:47:54;;;;;;;30.63;12.50;;;;;;;8.95;100.00;96847.78;4972909;28;20238;-70
2024/03/22 02:50:20;;;;;;;26.33;11.80;;;;;;;8.99;100.00;96838.63;4974282;28;20208;-71
2024/03/22 02:52:46;;;;;;;30.57;11.87;;;;;;;8.57;100.00;96844.66;4975267;28;20695;-68
2024/03/22 02:55:12;;;;;;;29.43;12.10;;;;;;;8.94;100.00;96838.25;4973640;28;20552;-71
2024/03/22 02:57:39;;;;;;;28.37;12.10;;;;;;;8.66;100.00;96841.13;4973086;28;20243;-70
2024/03/22 03:00:07;;;;;;;32.33;12.07;;;;;;;8.68;100.00;96832.13;4974920;28;20669;-70
2024/03/22 03:02:32;;;;;;;30.83;12.43;;;;;;;8.73;100.00;96831.66;4972966;28;20679;-70
2024/03/22 03:04:59;;;;;;;33.37;12.70;;;;;;;8.80;100.00;96827.47;4976823;28;20248;-69
2024/03/22 03:07:25;;;;;;;29.33;12.67;;;;;;;8.89;100.00;96819.47;4977227;28;20231;-70
2024/03/22 03:09:52;;;;;;;31.27;11.47;;;;;;;8.80;100.00;96817.75;4974515;28;20690;-70
2024/03/22 03:12:18;;;;;;;32.53;12.63;;;;;;;8.76;100.00;96810.34;4978117;28;20231;-69
2024/03/22 03:14:45;;;;;;;31.03;12.43;;;;;;;8.98;100.00;96807.22;4977207;28;20297;-71
2024/03/22 03:17:12;;;;;;;24.73;10.40;;;;;;;8.71;100.00;96804.72;4975851;28;20211;-69
2024/03/22 03:19:37;;;;;;;32.67;12.87;;;;;;;8.77;100.00;96797.06;4976576;28;20207;-70
2024/03/22 03:22:04;;;;;;;30.77;12.33;;;;;;;8.83;100.00;96806.13;4976880;28;20671;-70
2024/03/22 03:24:30;;;;;;;32.37;12.60;;;;;;;8.90;100.00;96799.31;4976811;28;20210;-70
2024/03/22 03:26:56;;;;;;;27.30;11.07;;;;;;;8.83;100.00;96799.06;4977972;28;20587;-70
2024/03/22 03:29:22;;;;;;;32.50;12.43;;;;;;;8.70;100.00;96801.25;4976599;28;20207;-70
2024/03/22 03:31:50;;;;;;;30.67;11.87;;;;;;;8.76;100.00;96799.84;4977620;28;20233;-70
2024/03/22 03:34:15;;;;;;;30.80;11.97;;;;;;;8.92;100.00;96806.03;4976710;28;20647;-71
2024/03/22 03:36:42;;;;;;;30.57;11.90;;;;;;;8.62;100.00;96805.63;4975803;28;20199;-71
2024/03/22 03:39:08;;;;;;;31.80;11.90;;;;;;;8.45;100.00;96816.13;4977110;28;20227;-69
2024/03/22 03:41:34;;;;;;;27.10;12.07;;;;;;;8.09;100.00;96814.44;4977397;28;20218;-70
2024/03/22 03:44:00;;;;;;;25.00;10.23;;;;;;;7.76;100.00;96809.78;4977542;28;20371;-70
2024/03/22 03:46:26;;;;;;;33.63;12.10;;;;;;;7.82;100.00;96811.81;4976860;28;20211;-70
2024/03/22 03:48:53;;;;;;;25.07;10.27;;;;;;;7.96;100.00;96808.72;4975781;28;20264;-70
2024/03/22 03:51:20;;;;;;;33.73;12.53;;;;;;;7.68;100.00;96812.31;4975840;28;20542;-68
2024/03/22 03:53:45;;;;;;;26.30;11.03;;;;;;;7.59;100.00;96804.50;4978320;28;20204;-69
2024/03/22 03:56:12;;;;;;;26.63;10.80;;;;;;;7.55;100.00;96803.16;4975341;28;20377;-70
2024/03/22 03:58:37;;;;;;;22.73;10.83;;;;;;;7.57;100.00;96799.38;4976039;28;20767;-70
2024/03/22 04:01:06;;;;;;;32.40;12.27;;;;;;;7.92;100.00;96792.44;4976233;28;20210;-70
2024/03/22 04:03:32;;;;;;;29.50;11.57;;;;;;;7.77;100.00;96790.44;4977400;28;20210;-69
2024/03/22 04:06:01;;;;;;;27.97;12.03;;;;;;;8.03;100.00;96780.88;4975733;28;20199;-68
2024/03/22 04:08:27;;;;;;;35.63;12.80;;;;;;;7.98;100.00;96780.50;4974962;28;20595;-70
2024/03/22 04:10:55;;;;;;;38.53;15.13;;;;;;;7.76;100.00;96780.13;4976967;28;20231;-70
2024/03/22 04:13:21;;;;;;;32.93;12.03;;;;;;;7.40;100.00;96783.59;4978515;28;20207;-69
2024/03/22 04:15:48;;;;;;;24.93;10.10;;;;;;;7.67;100.00;96781.81;4975242;28;20206;-70
2024/03/22 04:18:13;;;;;;;26.23;12.03;;;;;;;7.70;100.00;96781.53;4976108;28;20234;-69
2024/03/22 04:20:40;;;;;;;28.63;11.77;;;;;;;7.75;100.00;96781.91;4975773;28;20204;-70
2024/03/22 04:23:07;;;;;;;29.20;11.27;;;;;;;7.93;100.00;96773.09;4976491;28;20203;-70
2024/03/22 04:25:33;;;;;;;28.57;12.07;;;;;;;7.75;100.00;96768.81;4976247;28;20234;-68
2024/03/22 04:27:59;;;;;;;29.60;11.97;;;;;;;7.72;100.00;96763.03;4975496;28;20223;-69
2024/03/22 04:30:25;;;;;;;29.33;11.87;;;;;;;7.78;100.00;96768.50;4976123;28;20379;-70
2024/03/22 04:32:51;;;;;;;34.57;12.23;;;;;;;7.68;100.00;96772.97;4976384;28;20241;-70
2024/03/22 04:35:17;;;;;;;37.27;15.03;;;;;;;7.67;100.00;96775.75;4974890;28;20654;-70
2024/03/22 04:37:44;;;;;;;31.17;13.10;;;;;;;7.73;100.00;96778.59;4974658;28;20762;-68
2024/03/22 04:40:13;;;;;;;37.47;15.00;;;;;;;7.93;100.00;96773.09;4975266;28;20284;-70
2024/03/22 04:42:39;;;;;;;32.33;12.20;;;;;;;7.79;100.00;96775.41;4976571;28;20204;-70
2024/03/22 04:45:05;;;;;;;31.27;11.73;;;;;;;7.85;100.00;96772.16;4974390;28;20688;-69
2024/03/22 04:47:32;;;;;;;26.50;11.17;;;;;;;7.85;100.00;96766.94;4974888;28;20705;-70
2024/03/22 04:49:57;;;;;;;29.30;11.93;;;;;;;7.79;100.00;96764.91;4976149;28;20207;-70
2024/03/22 04:52:24;;;;;;;30.27;11.27;;;;;;;7.77;100.00;96769.47;4976261;28;20250;-70
2024/03/22 04:54:49;;;;;;;24.63;11.10;;;;;;;7.81;100.00;96772.63;4975462;28;20711;-70
2024/03/22 04:57:17;;;;;;;25.87;10.77;;;;;;;7.97;100.00;96773.63;4974505;28;20477;-68
2024/03/22 04:59:43;;;;;;;27.13;10.60;;;;;;;7.71;100.00;96777.09;4975816;28;20215;-70
2024/03/22 05:02:09;;;;;;;27.90;10.73;;;;;;;7.68;100.00;96775.59;4975145;28;20203;-69
2024/03/22 05:04:35;;;;;;;28.37;11.80;;;;;;;7.60;100.00;96788.63;4976590;28;20605;-69
2024/03/22 05:07:01;;;;;;;27.30;11.37;;;;;;;7.61;100.00;96784.19;4974117;28;20222;-69
2024/03/22 05:09:27;;;;;;;26.90;11.17;;;;;;;7.50;100.00;96782.59;4974788;28;20207;-69
2024/03/22 05:11:53;;;;;;;25.60;10.50;;;;;;;7.55;100.00;96787.41;4975235;28;20253;-69
2024/03/22 05:14:21;;;;;;;29.97;11.53;;;;;;;7.72;100.00;96794.50;4975800;28;20230;-69
2024/03/22 05:16:47;;;;;;;28.90;11.30;;;;;;;7.26;100.00;96794.56;4974597;28;20569;-70
2024/03/22 05:19:13;;;;;;;28.10;10.73;;;;;;;7.34;100.00;96795.50;4975589;28;20227;-69
2024/03/22 05:21:39;;;;;;;29.03;12.07;;;;;;;7.28;100.00;96795.25;4975747;28;20195;-70
2024/03/22 05:24:05;;;;;;;25.70;11.03;;;;;;;7.45;100.00;96794.50;4975352;28;20245;-70
2024/03/22 05:26:36;;;;;;;23.53;10.73;;;;;;;7.27;100.00;96789.16;4974688;28;20834;-68
2024/03/22 05:29:02;;;;;;;28.20;11.50;;;;;;;7.40;100.00;96789.66;4974726;28;20246;-69
2024/03/22 05:31:30;;;;;;;25.13;11.53;;;;;;;7.69;100.00;96790.38;4975765;28;20307;-70
2024/03/22 05:33:55;;;;;;;27.77;10.83;;;;;;;7.41;100.00;96778.22;4975388;28;20208;-69
2024/03/22 05:36:22;;;;;;;34.07;12.87;;;;;;;7.61;100.00;96779.78;4976184;28;21055;-70
2024/03/22 05:38:48;;;;;;;24.03;10.57;;;;;;;7.68;100.00;96770.34;4974931;28;20233;-70
2024/03/22 05:41:14;;;;;;;27.20;11.67;;;;;;;7.57;100.00;96781.03;4975712;28;20207;-70
2024/03/22 05:43:40;;;;;;;30.60;11.73;;;;;;;7.64;100.00;96778.66;4975347;28;20556;-70
2024/03/22 05:46:06;;;;;;;28.83;11.63;;;;;;;7.68;100.00;96778.22;4975417;28;20214;-70
2024/03/22 05:48:33;;;;;;;30.67;11.80;;;;;;;8.05;100.00;96777.16;4974782;28;20322;-70
2024/03/22 05:50:59;;;;;;;31.50;12.07;;;;;;;7.93;100.00;96782.78;4974394;28;20322;-70
2024/03/22 05:53:25;;;;;;;32.97;12.50;;;;;;;8.02;100.00;96771.41;4975088;28;20211;-70
2024/03/22 05:55:51;;;;;;;28.17;11.27;;;;;;;8.04;100.00;96769.44;4973343;28;20968;-68
2024/03/22 05:58:17;;;;;;;31.07;11.87;;;;;;;8.08;100.00;96763.75;4974208;28;20227;-70
2024/03/22 06:00:44;;;;;;;24.87;10.93;;;;;;;8.08;100.00;96765.53;4974360;28;20672;-70
2024/03/22 06:03:09;;;;;;;29.77;12.03;;;;;;;8.31;100.00;96764.16;4976596;28;20210;-70
2024/03/22 06:05:38;;;;;;;29.43;11.87;;;;;;;8.56;100.00;96767.66;4974349;28;20580;-70
2024/03/22 06:08:04;;;;;;;31.90;12.27;;;;;;;8.53;100.00;96767.16;4973900;28;20712;-70
2024/03/22 06:10:31;;;;;;;30.63;11.73;;;;;;;8.67;100.00;96761.34;4975127;28;20207;-69
2024/03/22 06:12:56;;;;;;;31.50;11.40;;;;;;;8.81;100.00;96761.63;4975592;28;20245;-70
2024/03/22 06:15:23;;;;;;;30.23;12.03;;;;;;;8.76;100.00;96753.38;4974974;28;20203;-70
2024/03/22 06:17:50;;;;;;;26.23;10.43;;;;;;;8.88;100.00;96756.56;4975006;28;20344;-69
2024/03/22 06:20:16;;;;;;;31.87;12.20;;;;;;;9.12;100.00;96757.53;4974931;28;20222;-70
2024/03/22 06:22:43;;;;;;;31.27;11.80;;;;;;;9.32;100.00;96753.72;4974829;28;20205;-68
2024/03/22 06:25:10;;;;;;;30.77;11.00;;;;;;;9.23;100.00;96752.03;4975497;28;20246;-70
2024/03/22 06:27:35;;;;;;;32.17;13.37;;;;;;;9.13;100.00;96751.31;4975556;28;20227;-69
2024/03/22 06:30:03;;;;;;;29.77;13.63;;;;;;;8.99;100.00;96754.50;4974554;28;20661;-69
2024/03/22 06:32:28;;;;;;;28.50;11.77;;;;;;;9.12;100.00;96744.41;4975209;28;20261;-70
2024/03/22 06:34:55;;;;;;;27.47;10.67;;;;;;;9.11;100.00;96748.00;4974825;28;20333;-71
2024/03/22 06:37:20;;;;;;;28.87;12.43;;;;;;;9.15;100.00;96746.69;4974286;28;20227;-70
2024/03/22 06:39:48;;;;;;;32.47;12.30;;;;;;;9.53;100.00;96739.16;4977328;28;20213;-71
2024/03/22 06:42:14;;;;;;;32.07;12.10;;;;;;;9.30;100.00;96737.25;4978485;28;21050;-71
2024/03/22 06:44:40;;;;;;;23.07;9.10;;;;;;;8.92;100.00;96740.31;4977873;28;20253;-70
2024/03/22 06:47:06;;;;;;;30.90;11.47;;;;;;;9.55;100.00;96736.41;4977658;28;20215;-71
2024/03/22 06:49:32;;;;;;;26.53;9.87;;;;;;;9.75;100.00;96742.06;4978707;28;20222;-71
2024/03/22 06:51:58;;;;;;;23.97;9.87;;;;;;;9.73;100.00;96735.28;4977609;28;20223;-70
2024/03/22 06:54:26;;;;;;;22.07;9.43;;;;;;;9.86;100.00;96736.50;4978685;28;20215;-68
2024/03/22 06:56:53;;;;;;;21.43;9.17;;;;;;;9.68;100.00;96738.41;4976873;28;20243;-68
2024/03/22 06:59:19;;;;;;;25.27;9.67;;;;;;;9.47;100.00;96734.56;4978268;28;21226;-71
2024/03/22 07:01:45;;;;;;;23.93;10.13;;;;;;;9.80;100.00;96733.66;4975326;28;20210;-71
2024/03/22 07:04:12;;;;;;;17.90;9.47;;;;;;;9.87;100.00;96730.22;4977967;28;20203;-71
2024/03/22 07:06:37;;;;;;;22.93;9.43;;;;;;;10.25;100.00;96719.16;4976152;28;20286;-70
2024/03/22 07:09:04;;;;;;;22.97;9.43;;;;;;;10.33;100.00;96720.00;4977473;28;20647;-70
2024/03/22 07:11:30;;;;;;;21.77;8.47;;;;;;;10.63;100.00;96721.97;4976511;28;20234;-70
2024/03/22 07:13:57;;;;;;;19.47;8.70;;;;;;;10.67;100.00;96714.56;4977368;28;20203;-69
2024/03/22 07:16:23;;;;;;;18.83;8.20;;;;;;;10.44;100.00;96724.91;4976226;28;20199;-69
2024/03/22 07:18:50;;;;;;;20.30;8.30;;;;;;;10.66;100.00;96726.06;4975855;28;20229;-71
2024/03/22 07:21:15;;;;;;;18.63;8.73;;;;;;;10.47;100.00;96715.88;4975510;28;20207;-70
2024/03/22 07:23:43;;;;;;;18.00;8.80;;;;;;;10.82;100.00;96711.06;4975285;28;20419;-70
2024/03/22 07:26:09;;;;;;;21.40;8.23;;;;;;;10.78;100.00;96711.56;4974874;28;20798;-71
2024/03/22 07:28:35;;;;;;;21.10;9.43;;;;;;;10.93;100.00;96715.16;4974061;28;20310;-70
2024/03/22 07:31:02;;;;;;;17.73;7.90;;;;;;;10.97;100.00;96718.13;4976073;28;20221;-70
2024/03/22 07:33:29;;;;;;;17.97;7.60;;;;;;;11.02;100.00;96713.19;4974341;28;20207;-70
2024/03/22 07:35:54;;;;;;;20.63;8.63;;;;;;;11.20;100.00;96713.78;4975653;28;20199;-71
2024/03/22 07:38:21;;;;;;;19.03;8.60;;;;;;;11.45;100.00;96703.97;4975678;28;20504;-69
2024/03/22 07:40:47;;;;;;;21.00;8.57;;;;;;;11.48;100.00;96714.19;4975212;28;20207;-69
2024/03/22 07:43:16;;;;;;;17.87;8.90;;;;;;;11.47;100.00;96707.25;4976099;28;20206;-71
2024/03/22 07:45:42;;;;;;;19.40;9.10;;;;;;;12.00;100.00;96694.97;4976238;28;20214;-72
2024/03/22 07:48:10;;;;;;;16.77;7.33;;;;;;;11.96;100.00;96693.69;4975771;28;20247;-69
2024/03/22 07:50:35;;;;;;;20.50;7.60;;;;;;;11.97;100.00;96693.50;4974514;28;20211;-69
2024/03/22 07:53:02;;;;;;;19.07;9.07;;;;;;;12.37;100.00;96696.72;4975376;28;20267;-72
2024/03/22 07:55:27;;;;;;;16.37;7.30;;;;;;;12.42;100.00;96699.66;4975390;28;21547;-71
2024/03/22 07:57:54;;;;;;;13.40;7.13;;;;;;;12.61;100.00;96700.97;4975058;28;20226;-71
2024/03/22 08:00:20;;;;;;;14.57;5.83;;;;;;;12.84;100.00;96698.13;4975868;28;20281;-70
2024/03/22 08:02:46;;;;;;;16.00;7.53;;;;;;;12.63;100.00;96697.16;4975416;28;20290;-68
2024/03/22 08:05:13;;;;;;;18.90;7.33;;;;;;;12.76;100.00;96689.44;4976811;28;20218;-70
2024/03/22 08:07:40;;;;;;;14.63;7.07;;;;;;;12.70;100.00;96684.84;4974522;28;20227;-70
2024/03/22 08:10:06;;;;;;;19.33;7.80;;;;;;;12.88;100.00;96674.78;4975897;28;20677;-71
2024/03/22 08:12:32;;;;;;;13.37;6.07;;;;;;;13.09;100.00;96674.91;4974618;28;20618;-71
2024/03/22 08:14:58;;;;;;;13.67;6.97;;;;;;;13.15;100.00;96668.88;4977122;28;20217;-71
2024/03/22 08:17:24;;;;;;;14.63;6.67;;;;;;;13.14;100.00;96672.56;4975408;28;20227;-71
2024/03/22 08:19:50;;;;;;;13.53;6.13;;;;;;;13.02;100.00;96664.25;4975317;28;20734;-70
2024/03/22 08:22:18;;;;;;;11.40;5.50;;;;;;;13.28;100.00;96664.59;4975525;28;20203;-70
2024/03/22 08:24:44;;;;;;;12.37;6.27;;;;;;;13.28;100.00;96669.09;4975275;28;20215;-69
2024/03/22 08:27:10;;;;;;;16.23;6.43;;;;;;;13.27;100.00;96665.59;4975406;28;20593;-69
2024/03/22 08:29:36;;;;;;;11.00;6.00;;;;;;;13.41;100.00;96665.59;4975490;28;20209;-71
2024/03/22 08:32:04;;;;;;;15.03;6.17;;;;;;;13.38;100.00;96663.31;4975969;28;20223;-70
2024/03/22 08:34:30;;;;;;;11.13;5.40;;;;;;;13.60;100.00;96658.91;4974996;28;20290;-71
2024/03/22 08:36:56;;;;;;;14.57;7.07;;;;;;;13.70;100.00;96657.59;4975397;28;20302;-70
2024/03/22 08:39:24;;;;;;;17.37;6.83;;;;;;;13.91;100.00;96657.63;4974769;28;20257;-69
2024/03/22 08:41:50;;;;;;;12.37;5.33;;;;;;;13.90;100.00;96650.72;4974933;28;20201;-70
2024/03/22 08:44:16;;;;;;;13.23;6.17;;;;;;;14.01;100.00;96644.91;4974748;28;20209;-71
2024/03/22 08:46:43;;;;;;;12.43;4.67;;;;;;;14.06;100.00;96647.81;4974560;28;20203;-68
2024/03/22 08:49:08;;;;;;;16.20;6.87;;;;;;;14.02;100.00;96659.81;4975601;28;20241;-68
2024/03/22 08:51:35;;;;;;;11.93;6.00;;;;;;;14.01;100.00;96652.88;4974463;28;20204;-70
2024/03/22 08:54:01;;;;;;;7.90;4.63;;;;;;;14.28;100.00;96650.34;4974698;28;20307;-70
2024/03/22 08:56:29;;;;;;;15.10;5.60;;;;;;;14.58;100.00;96651.00;4975087;28;20663;-71
2024/03/22 08:58:55;;;;;;;13.00;5.90;;;;;;;14.56;100.00;96647.72;4973691;28;20233;-71
2024/03/22 09:01:22;;;;;;;15.07;6.50;;;;;;;14.83;100.00;96645.91;4974641;28;20655;-68
2024/03/22 09:03:50;;;;;;;19.07;6.23;;;;;;;14.66;100.00;96646.38;4974778;28;20563;-69
2024/03/22 09:06:17;;;;;;;14.13;4.70;;;;;;;14.26;100.00;96641.75;4974493;28;20318;-70
2024/03/22 09:08:42;;;;;;;10.47;4.53;;;;;;;14.53;100.00;96640.97;4973468;28;20249;-70
2024/03/22 09:11:09;;;;;;;11.23;5.70;;;;;;;14.51;100.00;96647.47;4974494;28;20712;-70
2024/03/22 09:13:36;;;;;;;10.73;5.07;;;;;;;15.00;100.00;96647.25;4973408;28;20235;-69
2024/03/22 09:16:03;;;;;;;12.90;6.10;;;;;;;14.83;100.00;96637.94;4974444;28;20306;-71
2024/03/22 09:18:28;;;;;;;10.53;4.77;;;;;;;14.42;100.00;96638.84;4974129;28;20258;-69
2024/03/22 09:20:56;;;;;;;11.67;5.80;;;;;;;14.79;100.00;96638.50;4974444;28;20677;-67
2024/03/22 09:23:21;;;;;;;13.90;5.60;;;;;;;14.95;100.00;96636.38;4973804;28;20206;-70
2024/03/22 09:25:48;;;;;;;16.90;6.13;;;;;;;15.13;100.00;96639.38;4973983;28;20582;-70
2024/03/22 09:28:14;;;;;;;12.73;4.73;;;;;;;14.83;100.00;96623.88;4974218;28;20737;-69
2024/03/22 09:30:43;;;;;;;10.10;5.40;;;;;;;15.29;100.00;96628.47;4975027;28;20203;-70
2024/03/22 09:33:09;;;;;;;13.20;5.60;;;;;;;15.33;100.00;96619.91;4975625;28;20323;-68
2024/03/22 09:35:36;;;;;;;9.67;4.70;;;;;;;15.30;100.00;96630.13;4975127;28;20203;-70
2024/03/22 09:38:02;;;;;;;12.07;5.50;;;;;;;15.37;100.00;96628.31;4974894;28;21024;-71
2024/03/22 09:40:28;;;;;;;10.57;4.93;;;;;;;15.27;100.00;96618.06;4975185;28;20207;-71
2024/03/22 09:43:02;;;;;;;11.37;5.20;;;;;;;15.83;100.00;96608.06;4974811;28;20538;-69
2024/03/22 09:45:29;;;;;;;13.37;5.43;;;;;;;15.59;100.00;96611.25;4975045;28;20577;-70
2024/03/22 09:47:57;;;;;;;9.47;4.30;;;;;;;15.48;100.00;96598.53;4974604;28;20235;-70
2024/03/22 09:50:24;;;;;;;10.85;4.40;;;;;;;15.49;98.94;96597.50;4975811;28;20211;-69
2024/03/22 09:52:52;;;;;;;10.05;4.63;;;;;;;15.92;98.07;96595.22;4974424;28;20242;-71
2024/03/22 09:55:23;;;;;;;9.05;4.47;;;;;;;16.10;96.30;96586.63;4972904;28;20288;-70
2024/03/22 09:57:50;;;;;;;10.07;4.85;;;;;;;15.95;93.04;96591.34;4973233;28;20237;-71
2024/03/22 10:00:20;;;;;;;7.00;4.07;;;;;;;16.01;95.28;96579.88;4974618;28;20251;-68
2024/03/22 10:02:46;;;;;;;10.05;4.75;;;;;;;16.23;92.99;96579.50;4972886;28;20203;-69
2024/03/22 10:05:14;;;;;;;9.40;4.30;;;;;;;16.38;93.54;96574.84;4973887;28;20214;-70
2024/03/22 10:07:41;;;;;;;11.20;5.45;;;;;;;16.48;91.59;96572.59;4973115;28;20760;-71
2024/03/22 10:10:08;;;;;;;9.57;4.43;;;;;;;16.51;90.79;96572.19;4973884;28;20218;-69
2024/03/22 10:12:34;;;;;;;12.48;4.95;;;;;;;16.58;88.62;96567.66;4972686;28;20717;-69
2024/03/22 10:15:00;;;;;;;8.75;4.00;;;;;;;16.93;86.31;96566.38;4974115;28;20369;-71
2024/03/22 10:17:26;;;;;;;10.98;4.68;;;;;;;17.14;85.15;96567.78;4972242;28;20227;-70
2024/03/22 10:19:54;;;;;;;10.43;4.65;;;;;;;17.11;83.71;96565.53;4973899;28;20730;-71
2024/03/22 10:22:21;;;;;;;8.30;4.20;;;;;;;17.22;84.33;96562.22;4973081;28;20673;-70
2024/03/22 10:24:47;;;;;;;8.38;4.18;;;;;;;16.84;85.60;96568.47;4972994;28;20218;-71
2024/03/22 10:27:13;;;;;;;7.43;3.92;;;;;;;17.02;84.21;96562.47;4972773;28;20590;-70
2024/03/22 10:29:40;;;;;;;6.93;3.42;;;;;;;17.07;82.87;96552.03;4974086;28;20203;-72
2024/03/22 10:32:08;;;;;;;8.00;4.22;;;;;;;17.45;82.32;96551.09;4973794;28;20231;-69
2024/03/22 10:34:35;;;;;;;7.22;3.65;;;;;;;17.38;81.68;96548.47;4973574;28;20344;-70
2024/03/22 10:37:01;;;;;;;8.85;3.80;;;;;;;17.47;80.54;96544.53;4972110;28;20302;-69
2024/03/22 10:39:29;;;;;;;11.00;3.58;;;;;;;17.71;78.97;96531.28;4973533;28;20210;-69
2024/03/22 10:41:55;;;;;;;8.60;4.28;;;;;;;17.68;76.65;96538.91;4973357;28;20207;-71
2024/03/22 10:44:22;;;;;;;10.43;4.07;;;;;;;17.65;77.35;96534.00;4973675;28;20213;-69
2024/03/22 10:46:49;;;;;;;8.07;3.53;;;;;;;18.12;76.67;96533.50;4972396;28;20218;-70
2024/03/22 10:49:18;;;;;;;14.35;4.50;;;;;;;18.74;74.24;96527.03;4974771;28;20234;-70
2024/03/22 10:51:48;;;;;;;10.55;4.05;;;;;;;18.07;73.77;96520.00;4973443;28;20568;-71
2024/03/22 10:54:20;;;;;;;9.00;4.53;;;;;;;18.25;73.14;96515.56;4974357;28;20218;-71
2024/03/22 10:56:48;;;;;;;11.63;4.03;;;;;;;18.83;73.99;96512.38;4974392;28;20243;-71
2024/03/22 10:59:15;;;;;;;9.50;3.72;;;;;;;18.85;72.17;96506.81;4974567;28;20230;-70
2024/03/22 11:01:45;;;;;;;8.57;3.58;;;;;;;18.51;72.57;96502.81;4973635;28;20673;-69
2024/03/22 11:04:12;;;;;;;5.18;2.97;;;;;;;18.23;72.12;96500.81;4974275;28;20204;-70
2024/03/22 11:06:37;;;;;;;6.82;3.20;;;;;;;18.55;69.45;96498.69;4973700;28;20211;-69
2024/03/22 11:09:05;;;;;;;8.27;3.72;;;;;;;18.90;69.48;96489.06;4973122;28;20227;-71
2024/03/22 11:11:33;;;;;;;6.75;3.53;;;;;;;19.37;69.08;96489.16;4972308;28;20192;-70
2024/03/22 11:14:01;;;;;;;8.05;4.05;;;;;;;19.13;67.60;96476.72;4974217;28;20230;-70
2024/03/22 11:16:26;;;;;;;7.38;3.25;;;;;;;19.01;68.17;96475.00;4974387;28;20218;-70